createdAt,value
2023-03-31T00:01:53.018Z,100.00
2023-03-31T00:04:24.356Z,100.00
2023-03-31T00:06:54.277Z,100.00
2023-03-31T00:09:22.105Z,100.00
2023-03-31T00:11:49.731Z,100.00
2023-03-31T00:14:18.466Z,100.00
2023-03-31T00:16:45.630Z,100.00
2023-03-31T00:19:20.648Z,100.00
2023-03-31T00:21:48.754Z,100.00
2023-03-31T00:24:16.351Z,100.00
2023-03-31T00:26:42.948Z,100.00
2023-03-31T00:29:11.628Z,100.00
2023-03-31T00:31:39.728Z,100.00
2023-03-31T00:34:06.858Z,100.00
2023-03-31T00:36:36.810Z,100.00
2023-03-31T00:39:08.927Z,100.00
2023-03-31T00:41:37.124Z,100.00
2023-03-31T00:44:18.784Z,100.00
2023-03-31T00:46:54.089Z,100.00
2023-03-31T00:49:48.295Z,100.00
2023-03-31T00:52:23.448Z,100.00
2023-03-31T00:55:02.605Z,100.00
2023-03-31T00:57:32.734Z,100.00
2023-03-31T01:00:09.892Z,100.00
2023-03-31T01:02:41.394Z,100.00
2023-03-31T01:05:08.949Z,100.00
2023-03-31T01:07:43.507Z,100.00
2023-03-31T01:10:11.131Z,100.00
2023-03-31T01:12:41.034Z,100.00
2023-03-31T01:15:09.113Z,100.00
2023-03-31T01:17:37.095Z,100.00
2023-03-31T01:20:33.370Z,100.00
2023-03-31T01:23:18.399Z,100.00
2023-03-31T01:25:56.309Z,100.00
2023-03-31T01:28:59.739Z,100.00
2023-03-31T01:31:51.109Z,100.00
2023-03-31T01:34:57.857Z,100.00
2023-03-31T01:38:01.718Z,100.00
2023-03-31T01:40:47.264Z,100.00
2023-03-31T01:43:48.752Z,100.00
2023-03-31T01:46:28.878Z,100.00
2023-03-31T01:49:07.138Z,100.00
2023-03-31T01:51:56.693Z,100.00
2023-03-31T01:54:33.048Z,100.00
2023-03-31T01:57:06.236Z,100.00
2023-03-31T01:59:42.331Z,100.00
2023-03-31T02:02:19.888Z,100.00
2023-03-31T02:04:51.642Z,100.00
2023-03-31T02:07:27.293Z,100.00
2023-03-31T02:09:58.813Z,100.00
2023-03-31T02:12:27.536Z,100.00
2023-03-31T02:14:56.164Z,100.00
2023-03-31T02:17:32.850Z,100.00
2023-03-31T02:20:06.256Z,100.00
2023-03-31T02:22:37.656Z,100.00
2023-03-31T02:25:06.464Z,100.00
2023-03-31T02:27:42.152Z,100.00
2023-03-31T02:30:10.088Z,100.00
2023-03-31T02:32:40.866Z,100.00
2023-03-31T02:35:15.736Z,100.00
2023-03-31T02:37:43.504Z,100.00
2023-03-31T02:40:18.292Z,100.00
2023-03-31T02:42:44.959Z,100.00
2023-03-31T02:45:49.560Z,100.00
2023-03-31T02:48:18.736Z,100.00
2023-03-31T02:51:02.549Z,100.00
2023-03-31T02:53:56.068Z,100.00
2023-03-31T02:56:50.002Z,100.00
2023-03-31T02:59:34.679Z,100.00
2023-03-31T03:02:04.119Z,100.00
2023-03-31T03:04:42.653Z,100.00
2023-03-31T03:07:35.340Z,100.00
2023-03-31T03:10:16.405Z,100.00
2023-03-31T03:12:52.539Z,100.00
2023-03-31T03:15:30.963Z,100.00
2023-03-31T03:17:58.561Z,100.00
2023-03-31T03:20:25.667Z,100.00
2023-03-31T03:22:52.137Z,100.00
2023-03-31T03:25:20.441Z,100.00
2023-03-31T03:27:46.971Z,100.00
2023-03-31T03:30:14.309Z,100.00
2023-03-31T03:32:41.705Z,100.00
2023-03-31T03:35:08.944Z,100.00
2023-03-31T03:37:35.679Z,100.00
2023-03-31T03:40:03.829Z,100.00
2023-03-31T03:42:30.331Z,100.00
2023-03-31T03:44:56.737Z,100.00
2023-03-31T03:47:23.235Z,100.00
2023-03-31T03:49:50.528Z,100.00
2023-03-31T03:52:17.062Z,100.00
2023-03-31T03:54:43.479Z,100.00
2023-03-31T03:57:10.310Z,100.00
2023-03-31T03:59:36.765Z,100.00
2023-03-31T04:02:03.320Z,100.00
2023-03-31T04:04:29.734Z,100.00
2023-03-31T04:06:56.296Z,100.00
2023-03-31T04:09:22.866Z,100.00
2023-03-31T04:11:49.317Z,100.00
2023-03-31T04:14:15.871Z,100.00
2023-03-31T04:16:42.686Z,100.00
2023-03-31T04:19:11.466Z,100.00
2023-03-31T04:21:44.939Z,100.00
2023-03-31T04:24:16.126Z,100.00
2023-03-31T04:26:45.529Z,100.00
2023-03-31T04:29:13.603Z,100.00
2023-03-31T04:31:44.044Z,100.00
2023-03-31T04:34:13.432Z,100.00
2023-03-31T04:36:48.508Z,100.00
2023-03-31T04:39:17.085Z,100.00
2023-03-31T04:41:44.523Z,100.00
2023-03-31T04:44:11.181Z,100.00
2023-03-31T04:46:37.783Z,100.00
2023-03-31T04:49:05.643Z,100.00
2023-03-31T04:51:32.151Z,100.00
2023-03-31T04:53:58.583Z,100.00
2023-03-31T04:56:25.021Z,100.00
2023-03-31T04:58:51.494Z,100.00
2023-03-31T05:01:20.848Z,100.00
2023-03-31T05:03:47.991Z,100.00
2023-03-31T05:06:16.392Z,100.00
2023-03-31T05:08:43.631Z,100.00
2023-03-31T05:11:10.933Z,100.00
2023-03-31T05:13:37.288Z,100.00
2023-03-31T05:16:12.395Z,100.00
2023-03-31T05:18:38.864Z,100.00
2023-03-31T05:21:17.433Z,100.00
2023-03-31T05:23:44.757Z,100.00
2023-03-31T05:26:11.942Z,100.00
2023-03-31T05:28:38.423Z,100.00
2023-03-31T05:31:06.888Z,100.00
2023-03-31T05:33:34.313Z,100.00
2023-03-31T05:36:01.131Z,100.00
2023-03-31T05:38:31.644Z,100.00
2023-03-31T05:40:58.387Z,100.00
2023-03-31T05:43:25.107Z,100.00
2023-03-31T05:45:51.719Z,100.00
2023-03-31T05:48:18.217Z,100.00
2023-03-31T05:50:44.868Z,100.00
2023-03-31T05:53:11.290Z,100.00
2023-03-31T05:55:38.654Z,100.00
2023-03-31T05:58:06.777Z,100.00
2023-03-31T06:00:33.229Z,100.00
2023-03-31T06:02:59.677Z,100.00
2023-03-31T06:05:31.099Z,100.00
2023-03-31T06:07:57.708Z,100.00
2023-03-31T06:10:24.173Z,100.00
2023-03-31T06:12:50.874Z,100.00
2023-03-31T06:15:17.805Z,100.00
2023-03-31T06:17:44.268Z,100.00
2023-03-31T06:20:26.588Z,100.00
2023-03-31T06:22:54.094Z,100.00
2023-03-31T06:25:20.929Z,100.00
2023-03-31T06:27:47.485Z,100.00
2023-03-31T06:30:14.094Z,100.00
2023-03-31T06:32:40.640Z,100.00
2023-03-31T06:35:07.389Z,100.00
2023-03-31T06:37:33.796Z,100.00
2023-03-31T06:40:00.228Z,100.00
2023-03-31T06:42:26.675Z,100.00
2023-03-31T06:44:53.084Z,100.00
2023-03-31T06:47:19.602Z,100.00
2023-03-31T06:49:46.222Z,100.00
2023-03-31T06:52:12.742Z,100.00
2023-03-31T06:54:39.270Z,100.00
2023-03-31T06:57:05.837Z,100.00
2023-03-31T06:59:32.715Z,100.00
2023-03-31T07:01:59.193Z,100.00
2023-03-31T07:04:25.704Z,100.00
2023-03-31T07:06:52.175Z,100.00
2023-03-31T07:09:18.824Z,100.00
2023-03-31T07:11:45.274Z,100.00
2023-03-31T07:14:11.906Z,100.00
2023-03-31T07:16:38.420Z,100.00
2023-03-31T07:19:07.085Z,100.00
2023-03-31T07:21:34.140Z,100.00
2023-03-31T07:24:00.665Z,100.00
2023-03-31T07:26:27.723Z,100.00
2023-03-31T07:28:56.662Z,100.00
2023-03-31T07:31:23.800Z,100.00
2023-03-31T07:33:50.399Z,100.00
2023-03-31T07:36:17.436Z,100.00
2023-03-31T07:38:47.002Z,100.00
2023-03-31T07:41:15.350Z,100.00
2023-03-31T07:43:41.832Z,100.00
2023-03-31T07:46:15.052Z,100.00
2023-03-31T07:48:41.477Z,100.00
2023-03-31T07:51:08.062Z,100.00
2023-03-31T07:53:34.726Z,100.00
2023-03-31T07:56:01.345Z,100.00
2023-03-31T07:58:28.217Z,100.00
2023-03-31T08:00:54.782Z,100.00
2023-03-31T08:03:21.379Z,100.00
2023-03-31T08:05:48.929Z,100.00
2023-03-31T08:08:16.354Z,100.00
2023-03-31T08:10:43.143Z,100.00
2023-03-31T08:13:09.554Z,100.00
2023-03-31T08:15:35.968Z,100.00
2023-03-31T08:18:03.811Z,100.00
2023-03-31T08:20:30.619Z,100.00
2023-03-31T08:22:57.460Z,100.00
2023-03-31T08:25:24.001Z,100.00
2023-03-31T08:27:51.229Z,100.00
2023-03-31T08:30:19.576Z,100.00
2023-03-31T08:32:46.431Z,100.00
2023-03-31T08:35:12.909Z,100.00
2023-03-31T08:37:39.866Z,100.00
2023-03-31T08:40:09.533Z,100.00
2023-03-31T08:42:43.719Z,100.00
2023-03-31T08:45:31.939Z,100.00
2023-03-31T08:48:08.037Z,100.00
2023-03-31T08:50:41.069Z,100.00
2023-03-31T08:53:26.315Z,100.00
2023-03-31T08:55:55.052Z,100.00
2023-03-31T08:58:32.396Z,100.00
2023-03-31T09:01:21.301Z,100.00
2023-03-31T09:04:21.959Z,100.00
2023-03-31T09:06:51.400Z,100.00
2023-03-31T09:09:43.173Z,100.00
2023-03-31T09:12:28.598Z,100.00
2023-03-31T09:15:02.891Z,100.00
2023-03-31T09:17:33.071Z,100.00
2023-03-31T09:20:23.281Z,100.00
2023-03-31T09:22:55.860Z,100.00
2023-03-31T09:25:34.202Z,100.00
2023-03-31T09:28:03.628Z,100.00
2023-03-31T09:30:34.049Z,100.00
2023-03-31T09:33:19.777Z,100.00
2023-03-31T09:35:46.836Z,100.00
2023-03-31T09:38:15.774Z,100.00
2023-03-31T09:40:43.101Z,100.00
2023-03-31T09:43:22.786Z,100.00
2023-03-31T09:46:05.430Z,100.00
2023-03-31T09:48:36.492Z,100.00
2023-03-31T09:51:06.905Z,100.00
2023-03-31T09:54:21.298Z,100.00
2023-03-31T09:56:53.551Z,100.00
2023-03-31T09:59:23.435Z,100.00
2023-03-31T10:01:53.482Z,100.00
2023-03-31T10:04:24.149Z,100.00
2023-03-31T10:06:53.617Z,100.00
2023-03-31T10:09:34.223Z,100.00
2023-03-31T10:12:05.731Z,100.00
2023-03-31T10:14:41.198Z,100.00
2023-03-31T10:17:07.795Z,100.00
2023-03-31T10:19:37.722Z,100.00
2023-03-31T10:22:16.677Z,100.00
2023-03-31T10:24:45.554Z,100.00
2023-03-31T10:27:22.938Z,100.00
2023-03-31T10:29:59.548Z,100.00
2023-03-31T10:32:29.527Z,100.00
2023-03-31T10:35:06.540Z,100.00
2023-03-31T10:37:36.574Z,100.00
2023-03-31T10:40:14.837Z,100.00
2023-03-31T10:42:46.325Z,100.00
2023-03-31T10:45:37.399Z,100.00
2023-03-31T10:48:05.085Z,100.00
2023-03-31T10:50:36.144Z,100.00
2023-03-31T10:53:14.313Z,100.00
2023-03-31T10:56:02.506Z,100.00
2023-03-31T10:59:06.159Z,100.00
2023-03-31T11:01:45.748Z,100.00
2023-03-31T11:04:27.214Z,100.00
2023-03-31T11:07:31.210Z,100.00
2023-03-31T11:10:34.742Z,100.00
2023-03-31T11:13:04.042Z,100.00
2023-03-31T11:15:38.681Z,100.00
2023-03-31T11:18:35.317Z,100.00
2023-03-31T11:21:23.272Z,100.00
2023-03-31T11:24:05.537Z,100.00
2023-03-31T11:26:52.988Z,100.00
2023-03-31T11:29:41.027Z,100.00
2023-03-31T11:32:28.358Z,100.00
2023-03-31T11:35:24.256Z,100.00
2023-03-31T11:38:11.502Z,100.00
2023-03-31T11:41:02.490Z,100.00
2023-03-31T11:43:40.254Z,100.00
2023-03-31T11:46:30.562Z,100.00
2023-03-31T11:49:04.380Z,100.00
2023-03-31T11:51:50.728Z,100.00
2023-03-31T11:54:34.334Z,100.00
2023-03-31T11:57:03.661Z,100.00
2023-03-31T11:59:32.739Z,100.00
2023-03-31T12:02:15.372Z,100.00
2023-03-31T12:04:50.522Z,100.00
2023-03-31T12:07:19.698Z,100.00
2023-03-31T12:10:05.734Z,97.38
2023-03-31T12:12:41.969Z,96.53
2023-03-31T12:15:23.142Z,98.35
2023-03-31T12:17:57.393Z,97.90
2023-03-31T12:20:41.214Z,100.00
2023-03-31T12:23:15.407Z,98.96
2023-03-31T12:25:53.608Z,98.19
2023-03-31T12:28:21.300Z,96.79
2023-03-31T12:30:48.836Z,95.88
2023-03-31T12:33:38.483Z,87.46
2023-03-31T12:36:14.016Z,90.45
2023-03-31T12:39:19.333Z,80.64
2023-03-31T12:42:04.378Z,82.31
2023-03-31T12:44:48.856Z,76.91
2023-03-31T12:47:40.264Z,68.00
2023-03-31T12:50:31.986Z,66.87
2023-03-31T12:53:13.701Z,67.38
2023-03-31T12:55:46.793Z,67.17
2023-03-31T12:58:33.130Z,69.39
2023-03-31T13:01:05.849Z,71.10
2023-03-31T13:03:35.382Z,70.90
2023-03-31T13:06:03.674Z,72.33
2023-03-31T13:08:49.990Z,72.22
2023-03-31T13:11:18.076Z,74.03
2023-03-31T13:16:38.144Z,74.30
2023-03-31T13:19:05.268Z,70.86
2023-03-31T13:21:32.105Z,69.84
2023-03-31T13:24:02.107Z,69.26
2023-03-31T13:26:46.378Z,69.88
2023-03-31T13:29:16.295Z,68.61
2023-03-31T13:32:01.093Z,69.57
2023-03-31T13:34:37.019Z,72.05
2023-03-31T13:37:09.484Z,69.73
2023-03-31T13:39:41.843Z,70.46
2023-03-31T13:42:46.836Z,70.78
2023-03-31T13:45:27.575Z,70.01
2023-03-31T13:48:11.268Z,69.19
2023-03-31T13:51:20.274Z,67.66
2023-03-31T13:53:54.358Z,68.86
2023-03-31T13:56:45.632Z,66.25
2023-03-31T13:59:12.017Z,67.78
2023-03-31T14:02:03.705Z,65.93
2023-03-31T14:04:48.358Z,65.63
2023-03-31T14:07:45.307Z,62.11
2023-03-31T14:10:36.361Z,69.18
2023-03-31T14:13:13.989Z,64.13
2023-03-31T14:15:56.939Z,60.15
2023-03-31T14:18:27.496Z,59.72
2023-03-31T14:21:21.327Z,59.25
2023-03-31T14:24:08.410Z,57.15
2023-03-31T14:27:03.486Z,55.64
2023-03-31T14:29:52.097Z,57.61
2023-03-31T14:32:38.568Z,56.34
2023-03-31T14:35:29.919Z,55.96
2023-03-31T14:37:57.444Z,57.71
2023-03-31T14:40:24.776Z,57.21
2023-03-31T14:42:51.506Z,57.18
2023-03-31T14:45:25.401Z,56.85
2023-03-31T14:48:02.630Z,55.71
2023-03-31T14:50:38.304Z,55.78
2023-03-31T14:53:04.971Z,56.93
2023-03-31T14:55:54.156Z,57.20
2023-03-31T14:58:39.903Z,55.37
2023-03-31T15:01:08.880Z,57.13
2023-03-31T15:03:41.476Z,58.10
2023-03-31T15:06:08.511Z,57.93
2023-03-31T15:08:36.824Z,57.87
2023-03-31T15:13:56.551Z,58.30
2023-03-31T15:16:44.293Z,58.58
2023-03-31T15:19:18.208Z,59.37
2023-03-31T15:21:45.527Z,59.52
2023-03-31T15:24:15.429Z,59.96
2023-03-31T15:26:55.758Z,60.29
2023-03-31T15:29:43.001Z,59.71
2023-03-31T15:32:23.327Z,60.47
2023-03-31T15:34:51.167Z,61.01
2023-03-31T15:37:35.111Z,61.15
2023-03-31T15:40:02.506Z,61.15
2023-03-31T15:42:29.163Z,61.65
2023-03-31T15:45:16.786Z,61.94
2023-03-31T15:47:55.384Z,60.25
2023-03-31T15:50:22.737Z,60.85
2023-03-31T15:52:54.640Z,62.43
2023-03-31T15:55:31.492Z,63.44
2023-03-31T15:58:01.444Z,64.40
2023-03-31T16:00:38.408Z,66.61
2023-03-31T16:03:14.794Z,66.07
2023-03-31T16:05:54.326Z,65.62
2023-03-31T16:08:38.167Z,67.43
2023-03-31T16:11:15.550Z,68.47
2023-03-31T16:13:45.854Z,69.35
2023-03-31T16:16:15.504Z,69.23
2023-03-31T16:18:47.020Z,69.05
2023-03-31T16:21:16.170Z,69.74
2023-03-31T16:23:44.760Z,72.08
2023-03-31T16:26:11.683Z,71.95
2023-03-31T16:28:38.529Z,70.68
2023-03-31T16:31:05.937Z,70.43
2023-03-31T16:33:54.143Z,72.76
2023-03-31T16:36:20.588Z,71.38
2023-03-31T16:38:47.087Z,71.04
2023-03-31T16:41:15.780Z,70.58
2023-03-31T16:43:44.807Z,70.33
2023-03-31T16:46:11.338Z,70.33
2023-03-31T16:48:37.861Z,70.72
2023-03-31T16:51:04.957Z,69.61
2023-03-31T16:53:33.856Z,69.69
2023-03-31T16:56:00.983Z,69.12
2023-03-31T16:58:31.395Z,68.18
2023-03-31T17:00:58.741Z,66.69
2023-03-31T17:03:26.075Z,66.91
2023-03-31T17:05:57.815Z,65.33
2023-03-31T17:08:27.617Z,64.91
2023-03-31T17:10:58.732Z,64.54
2023-03-31T17:13:25.491Z,63.08
2023-03-31T17:16:01.344Z,62.27
2023-03-31T17:18:35.576Z,61.90
2023-03-31T17:21:07.433Z,59.60
2023-03-31T17:23:36.131Z,60.99
2023-03-31T17:26:04.095Z,61.33
2023-03-31T17:28:31.104Z,60.38
2023-03-31T17:30:58.552Z,60.71
2023-03-31T17:33:26.231Z,60.42
2023-03-31T17:35:57.137Z,59.65
2023-03-31T17:38:23.698Z,60.54
2023-03-31T17:40:50.118Z,61.21
2023-03-31T17:43:16.546Z,60.74
2023-03-31T17:45:42.953Z,60.83
2023-03-31T17:48:09.924Z,61.64
2023-03-31T17:50:37.497Z,62.00
2023-03-31T17:53:08.857Z,62.54
2023-03-31T17:55:38.508Z,62.55
2023-03-31T17:58:06.367Z,62.65
2023-03-31T18:00:32.799Z,63.90
2023-03-31T18:02:59.417Z,64.69
2023-03-31T18:05:26.042Z,65.60
2023-03-31T18:07:53.526Z,66.79
2023-03-31T18:10:20.345Z,67.73
2023-03-31T18:12:46.787Z,69.39
2023-03-31T18:15:13.405Z,69.58
2023-03-31T18:17:39.971Z,70.60
2023-03-31T18:20:06.897Z,71.02
2023-03-31T18:22:33.295Z,72.07
2023-03-31T18:24:59.841Z,73.63
2023-03-31T18:27:26.396Z,76.67
2023-03-31T18:29:52.851Z,82.20
2023-03-31T18:32:19.823Z,92.74
2023-03-31T18:34:46.901Z,100.00
2023-03-31T18:37:13.543Z,100.00
2023-03-31T18:39:40.001Z,100.00
2023-03-31T18:42:06.660Z,100.00
2023-03-31T18:44:34.720Z,100.00
2023-03-31T18:47:01.758Z,100.00
2023-03-31T18:49:28.303Z,100.00
2023-03-31T18:51:54.848Z,100.00
2023-03-31T18:54:21.832Z,100.00
2023-03-31T18:56:48.252Z,100.00
2023-03-31T18:59:14.770Z,100.00
2023-03-31T19:01:41.511Z,100.00
2023-03-31T19:04:09.069Z,100.00
2023-03-31T19:06:35.757Z,100.00
2023-03-31T19:09:02.232Z,100.00
2023-03-31T19:11:28.708Z,100.00
2023-03-31T19:13:55.950Z,100.00
2023-03-31T19:16:24.539Z,100.00
2023-03-31T19:18:51.301Z,100.00
2023-03-31T19:21:17.762Z,100.00
2023-03-31T19:23:44.355Z,100.00
2023-03-31T19:26:15.601Z,100.00
2023-03-31T19:28:42.452Z,100.00
2023-03-31T19:31:11.027Z,100.00
2023-03-31T19:33:37.642Z,100.00
2023-03-31T19:36:04.328Z,100.00
2023-03-31T19:38:32.581Z,100.00
2023-03-31T19:40:59.945Z,100.00
2023-03-31T19:43:27.622Z,100.00
2023-03-31T19:45:57.492Z,100.00
2023-03-31T19:48:26.193Z,100.00
2023-03-31T19:50:56.301Z,100.00
2023-03-31T19:53:23.079Z,100.00
2023-03-31T19:55:59.531Z,100.00
2023-03-31T19:58:27.404Z,100.00
2023-03-31T20:00:55.274Z,100.00
2023-03-31T20:03:23.601Z,100.00
2023-03-31T20:05:51.845Z,100.00
2023-03-31T20:08:18.457Z,100.00
2023-03-31T20:10:45.035Z,100.00
2023-03-31T20:13:11.950Z,100.00
2023-03-31T20:15:39.759Z,100.00
2023-03-31T20:18:07.380Z,100.00
2023-03-31T20:20:35.136Z,100.00
2023-03-31T20:23:01.594Z,100.00
2023-03-31T20:25:28.192Z,100.00
2023-03-31T20:27:54.642Z,100.00
2023-03-31T20:30:21.187Z,100.00
2023-03-31T20:32:47.646Z,100.00
2023-03-31T20:35:14.183Z,100.00
2023-03-31T20:37:40.677Z,100.00
2023-03-31T20:40:07.743Z,100.00
2023-03-31T20:42:35.418Z,100.00
2023-03-31T20:45:01.939Z,100.00
2023-03-31T20:47:28.423Z,100.00
2023-03-31T20:49:54.881Z,100.00
2023-03-31T20:52:21.299Z,100.00
2023-03-31T20:54:47.784Z,100.00
2023-03-31T20:57:14.232Z,100.00
2023-03-31T20:59:40.734Z,100.00
2023-03-31T21:02:07.682Z,100.00
2023-03-31T21:04:34.251Z,100.00
2023-03-31T21:07:01.043Z,100.00
2023-03-31T21:09:27.506Z,100.00
2023-03-31T21:11:53.956Z,100.00
2023-03-31T21:14:20.490Z,100.00
2023-03-31T21:16:47.066Z,100.00
2023-03-31T21:19:13.675Z,100.00
2023-03-31T21:21:41.416Z,100.00
2023-03-31T21:24:11.237Z,100.00
2023-03-31T21:26:37.800Z,100.00
2023-03-31T21:29:04.345Z,100.00
2023-03-31T21:31:31.076Z,100.00
2023-03-31T21:33:57.890Z,100.00
2023-03-31T21:36:24.970Z,100.00
2023-03-31T21:38:53.483Z,100.00
2023-03-31T21:41:23.999Z,100.00
2023-03-31T21:43:51.313Z,100.00
2023-03-31T21:46:20.332Z,100.00
2023-03-31T21:48:50.227Z,100.00
2023-03-31T21:51:18.298Z,100.00
2023-03-31T21:53:44.936Z,100.00
2023-03-31T21:56:11.385Z,100.00
2023-03-31T21:58:37.859Z,100.00
2023-03-31T22:01:05.124Z,100.00
2023-03-31T22:03:34.384Z,100.00
2023-03-31T22:06:07.156Z,100.00
2023-03-31T22:08:36.541Z,100.00
2023-03-31T22:11:04.342Z,100.00
2023-03-31T22:13:30.941Z,100.00
2023-03-31T22:15:58.682Z,100.00
2023-03-31T22:18:25.341Z,100.00
2023-03-31T22:20:52.362Z,100.00
2023-03-31T22:23:20.830Z,100.00
2023-03-31T22:25:48.110Z,100.00
2023-03-31T22:28:15.589Z,100.00
2023-03-31T22:30:42.860Z,100.00
2023-03-31T22:33:09.342Z,100.00
2023-03-31T22:35:35.874Z,100.00
2023-03-31T22:38:03.324Z,100.00
2023-03-31T22:40:30.227Z,100.00
2023-03-31T22:42:58.406Z,100.00
2023-03-31T22:45:25.357Z,100.00
2023-03-31T22:47:51.846Z,100.00
2023-03-31T22:50:18.474Z,100.00
2023-03-31T22:52:46.009Z,100.00
2023-03-31T22:55:12.450Z,100.00
2023-03-31T22:57:39.324Z,100.00
2023-03-31T23:00:06.550Z,100.00
2023-03-31T23:02:33.194Z,100.00
2023-03-31T23:04:59.590Z,100.00
2023-03-31T23:07:26.089Z,100.00
2023-03-31T23:09:52.573Z,100.00
2023-03-31T23:12:18.957Z,100.00
2023-03-31T23:14:45.359Z,100.00
2023-03-31T23:17:12.076Z,100.00
2023-03-31T23:19:38.783Z,100.00
2023-03-31T23:22:06.064Z,100.00
2023-03-31T23:24:32.889Z,100.00
2023-03-31T23:26:59.463Z,100.00
2023-03-31T23:29:26.057Z,100.00
2023-03-31T23:31:52.546Z,100.00
2023-03-31T23:34:19.005Z,100.00
2023-03-31T23:36:45.439Z,100.00
2023-03-31T23:39:11.856Z,100.00
2023-03-31T23:41:38.428Z,100.00
2023-03-31T23:44:05.342Z,100.00
2023-03-31T23:46:33.447Z,100.00
2023-03-31T23:49:01.745Z,100.00
2023-03-31T23:51:28.161Z,100.00
2023-03-31T23:53:54.588Z,100.00
2023-03-31T23:56:21.613Z,100.00
2023-03-31T23:58:48.036Z,100.00
